sensor_id;sensor_type;location;lat;lon;timestamp;pressure;altitude;pressure_sealevel;temperature;humidity
13836;BME280;6988;52.614;13.500;2023-04-28T00:01:09;54662.19;;;-143.77;67.00
13836;BME280;6988;52.614;13.500;2023-04-28T00:06:01;54705.28;;;-143.77;67.41
13836;BME280;6988;52.614;13.500;2023-04-28T00:10:53;54688.84;;;-143.77;67.43
13836;BME280;6988;52.614;13.500;2023-04-28T00:15:45;54672.44;;;-143.77;67.50
13836;BME280;6988;52.614;13.500;2023-04-28T00:20:39;54656.03;;;-143.77;67.65
13836;BME280;6988;52.614;13.500;2023-04-28T00:25:31;54705.28;;;-143.77;67.52
13836;BME280;6988;52.614;13.500;2023-04-28T00:30:23;54703.22;;;-143.77;67.82
13836;BME280;6988;52.614;13.500;2023-04-28T00:35:16;54664.22;;;-143.77;67.83
13836;BME280;6988;52.614;13.500;2023-04-28T00:40:10;54688.84;;;-143.77;68.15
13836;BME280;6988;52.614;13.500;2023-04-28T00:45:03;54684.75;;;-143.77;68.20
13836;BME280;6988;52.614;13.500;2023-04-28T00:49:57;54738.09;;;-143.77;68.92
13836;BME280;6988;52.614;13.500;2023-04-28T00:54:49;54697.06;;;-143.77;69.05
13836;BME280;6988;52.614;13.500;2023-04-28T00:59:43;54707.31;;;-143.77;69.06
13836;BME280;6988;52.614;13.500;2023-04-28T01:04:35;54692.97;;;-143.77;69.12
13836;BME280;6988;52.614;13.500;2023-04-28T01:09:27;54729.91;;;-143.77;69.18
13836;BME280;6988;52.614;13.500;2023-04-28T01:14:20;54717.59;;;-143.77;69.04
13836;BME280;6988;52.614;13.500;2023-04-28T01:19:19;54705.28;;;-143.77;69.38
13836;BME280;6988;52.614;13.500;2023-04-28T01:24:13;54688.84;;;-143.77;69.29
13836;BME280;6988;52.614;13.500;2023-04-28T01:29:06;54736.06;;;-143.77;69.65
13836;BME280;6988;52.614;13.500;2023-04-28T01:33:58;54756.56;;;-143.77;69.89
13836;BME280;6988;52.614;13.500;2023-04-28T01:38:50;54676.53;;;-143.77;70.03
13836;BME280;6988;52.614;13.500;2023-04-28T01:43:43;54721.69;;;-143.77;70.20
13836;BME280;6988;52.614;13.500;2023-04-28T01:48:35;54729.91;;;-143.77;70.51
13836;BME280;6988;52.614;13.500;2023-04-28T01:53:27;54738.09;;;-143.77;70.14
13836;BME280;6988;52.614;13.500;2023-04-28T01:58:19;54697.06;;;-143.77;70.37
13836;BME280;6988;52.614;13.500;2023-04-28T02:03:12;54715.53;;;-143.77;70.35
13836;BME280;6988;52.614;13.500;2023-04-28T02:08:04;54754.53;;;-143.77;70.07
13836;BME280;6988;52.614;13.500;2023-04-28T02:12:57;54727.84;;;-143.77;70.68
13836;BME280;6988;52.614;13.500;2023-04-28T02:17:49;54725.78;;;-143.77;70.61
13836;BME280;6988;52.614;13.500;2023-04-28T02:22:42;54744.25;;;-143.77;71.15
13836;BME280;6988;52.614;13.500;2023-04-28T02:27:34;54717.59;;;-143.77;71.63
13836;BME280;6988;52.614;13.500;2023-04-28T02:32:27;54715.53;;;-143.77;71.13
13836;BME280;6988;52.614;13.500;2023-04-28T02:37:19;54701.16;;;-143.77;71.40
13836;BME280;6988;52.614;13.500;2023-04-28T02:42:14;54721.69;;;-143.77;71.60
13836;BME280;6988;52.614;13.500;2023-04-28T02:47:06;54729.91;;;-143.77;71.77
13836;BME280;6988;52.614;13.500;2023-04-28T02:51:58;54717.59;;;-143.77;72.30
13836;BME280;6988;52.614;13.500;2023-04-28T02:56:50;54713.47;;;-143.77;72.21
13836;BME280;6988;52.614;13.500;2023-04-28T03:01:43;54705.28;;;-143.77;72.37
13836;BME280;6988;52.614;13.500;2023-04-28T03:06:35;54789.41;;;-143.77;71.84
13836;BME280;6988;52.614;13.500;2023-04-28T03:11:27;54729.91;;;-143.77;72.33
13836;BME280;6988;52.614;13.500;2023-04-28T03:16:19;54754.53;;;-143.77;72.06
13836;BME280;6988;52.614;13.500;2023-04-28T03:21:12;54725.78;;;-143.77;72.50
13836;BME280;6988;52.614;13.500;2023-04-28T03:26:04;54752.47;;;-143.77;72.06
13836;BME280;6988;52.614;13.500;2023-04-28T03:30:56;54727.84;;;-143.77;72.06
13836;BME280;6988;52.614;13.500;2023-04-28T03:35:48;54727.84;;;-143.77;72.48
13836;BME280;6988;52.614;13.500;2023-04-28T03:40:42;54729.91;;;-143.77;72.09
13836;BME280;6988;52.614;13.500;2023-04-28T03:45:34;54717.59;;;-143.77;72.37
13836;BME280;6988;52.614;13.500;2023-04-28T03:50:26;54725.78;;;-143.77;72.02
13836;BME280;6988;52.614;13.500;2023-04-28T03:55:19;54742.22;;;-143.77;72.11
13836;BME280;6988;52.614;13.500;2023-04-28T04:00:13;54707.31;;;-143.77;72.51
13836;BME280;6988;52.614;13.500;2023-04-28T04:05:10;54723.75;;;-143.77;72.53
13836;BME280;6988;52.614;13.500;2023-04-28T04:10:02;54688.84;;;-143.77;72.11
13836;BME280;6988;52.614;13.500;2023-04-28T04:14:54;54721.69;;;-143.77;72.32
13836;BME280;6988;52.614;13.500;2023-04-28T04:19:48;54713.47;;;-143.77;72.29
13836;BME280;6988;52.614;13.500;2023-04-28T04:24:40;54705.28;;;-143.77;71.59
13836;BME280;6988;52.614;13.500;2023-04-28T04:29:31;54697.06;;;-143.77;71.57
13836;BME280;6988;52.614;13.500;2023-04-28T04:34:27;54678.59;;;-143.77;71.44
13836;BME280;6988;52.614;13.500;2023-04-28T04:39:20;54660.13;;;-143.77;71.51
13836;BME280;6988;52.614;13.500;2023-04-28T04:44:12;54676.53;;;-143.77;72.11
13836;BME280;6988;52.614;13.500;2023-04-28T04:49:08;54672.44;;;-143.77;72.68
13836;BME280;6988;52.614;13.500;2023-04-28T04:54:00;54684.75;;;-143.77;73.85
13836;BME280;6988;52.614;13.500;2023-04-28T04:58:53;54684.75;;;-143.77;74.19
13836;BME280;6988;52.614;13.500;2023-04-28T05:04:06;54629.34;;;-143.77;74.80
13836;BME280;6988;52.614;13.500;2023-04-28T05:08:57;54647.81;;;-143.77;74.87
13836;BME280;6988;52.614;13.500;2023-04-28T05:13:52;54619.09;;;-143.77;74.25
13836;BME280;6988;52.614;13.500;2023-04-28T05:18:45;54586.25;;;-143.77;73.27
13836;BME280;6988;52.614;13.500;2023-04-28T05:23:37;54545.22;;;-143.77;72.93
13836;BME280;6988;52.614;13.500;2023-04-28T05:28:29;54534.94;;;-143.77;71.82
13836;BME280;6988;52.614;13.500;2023-04-28T05:33:23;54561.63;;;-143.77;72.00
13836;BME280;6988;52.614;13.500;2023-04-28T05:38:15;54516.50;;;-143.77;71.79
13836;BME280;6988;52.614;13.500;2023-04-28T05:43:09;54524.69;;;-143.77;70.82
13836;BME280;6988;52.614;13.500;2023-04-28T05:48:01;54508.28;;;-143.77;71.00
13836;BME280;6988;52.614;13.500;2023-04-28T05:52:56;54479.56;;;-143.77;69.25
13836;BME280;6988;52.614;13.500;2023-04-28T05:57:49;54493.91;;;-143.77;69.34
13836;BME280;6988;52.614;13.500;2023-04-28T06:02:41;54465.19;;;-143.77;68.54
13836;BME280;6988;52.614;13.500;2023-04-28T06:07:34;54506.22;;;-143.77;68.17
13836;BME280;6988;52.614;13.500;2023-04-28T06:12:27;54436.47;;;-143.77;66.99
13836;BME280;6988;52.614;13.500;2023-04-28T06:17:19;54434.41;;;-143.77;65.05
13836;BME280;6988;52.614;13.500;2023-04-28T06:22:12;54364.66;;;-143.77;62.56
13836;BME280;6988;52.614;13.500;2023-04-28T06:27:05;54354.38;;;-143.77;61.24
13836;BME280;6988;52.614;13.500;2023-04-28T06:31:58;54333.88;;;-143.77;60.90
13836;BME280;6988;52.614;13.500;2023-04-28T06:36:50;54294.88;;;-143.77;59.32
13836;BME280;6988;52.614;13.500;2023-04-28T06:41:42;54229.22;;;-143.77;58.74
13836;BME280;6988;52.614;13.500;2023-04-28T06:46:36;54227.16;;;-143.77;56.55
13836;BME280;6988;52.614;13.500;2023-04-28T06:51:30;54227.16;;;-143.77;54.66
13836;BME280;6988;52.614;13.500;2023-04-28T06:56:23;54177.94;;;-143.77;52.89
13836;BME280;6988;52.614;13.500;2023-04-28T07:01:15;54190.25;;;-143.77;51.67
13836;BME280;6988;52.614;13.500;2023-04-28T07:06:07;54249.75;;;-143.77;50.05
13836;BME280;6988;52.614;13.500;2023-04-28T07:11:00;54151.25;;;-143.77;48.80
13836;BME280;6988;52.614;13.500;2023-04-28T07:15:54;54179.97;;;-143.77;47.29
13836;BME280;6988;52.614;13.500;2023-04-28T07:20:46;54138.94;;;-143.77;47.02
13836;BME280;6988;52.614;13.500;2023-04-28T07:25:38;54118.44;;;-143.77;44.67
13836;BME280;6988;52.614;13.500;2023-04-28T07:30:32;54128.69;;;-143.77;45.88
13836;BME280;6988;52.614;13.500;2023-04-28T07:35:28;54106.13;;;-143.77;44.33
13836;BME280;6988;52.614;13.500;2023-04-28T07:40:20;54110.22;;;-143.77;44.68
13836;BME280;6988;52.614;13.500;2023-04-28T07:45:13;54102.00;;;-143.77;44.99
13836;BME280;6988;52.614;13.500;2023-04-28T07:50:08;54114.31;;;-143.77;44.61
13836;BME280;6988;52.614;13.500;2023-04-28T07:55:00;54050.72;;;-143.77;43.54
13836;BME280;6988;52.614;13.500;2023-04-28T07:59:52;54093.81;;;-143.77;44.29
13836;BME280;6988;52.614;13.500;2023-04-28T08:04:44;54058.94;;;-143.77;42.44
13836;BME280;6988;52.614;13.500;2023-04-28T08:09:37;54058.94;;;-143.77;44.34
13836;BME280;6988;52.614;13.500;2023-04-28T08:14:31;54060.97;;;-143.77;43.28
13836;BME280;6988;52.614;13.500;2023-04-28T08:19:23;54093.81;;;-143.77;42.85
13836;BME280;6988;52.614;13.500;2023-04-28T08:24:15;54028.16;;;-143.77;44.31
13836;BME280;6988;52.614;13.500;2023-04-28T08:29:09;54015.84;;;-143.77;43.13
13836;BME280;6988;52.614;13.500;2023-04-28T08:34:01;54011.75;;;-143.77;42.49
13836;BME280;6988;52.614;13.500;2023-04-28T08:38:53;54011.75;;;-143.77;42.65
13836;BME280;6988;52.614;13.500;2023-04-28T08:43:47;53980.97;;;-143.77;42.83
13836;BME280;6988;52.614;13.500;2023-04-28T08:48:42;53978.91;;;-143.77;43.48
13836;BME280;6988;52.614;13.500;2023-04-28T08:53:38;53993.28;;;-143.77;41.89
13836;BME280;6988;52.614;13.500;2023-04-28T08:58:30;53970.72;;;-143.77;42.36
13836;BME280;6988;52.614;13.500;2023-04-28T09:03:22;54011.75;;;-143.77;42.77
13836;BME280;6988;52.614;13.500;2023-04-28T09:08:16;53941.97;;;-143.77;42.26
13836;BME280;6988;52.614;13.500;2023-04-28T09:13:08;53962.50;;;-143.77;42.81
13836;BME280;6988;52.614;13.500;2023-04-28T09:18:01;53944.03;;;-143.77;41.60
13836;BME280;6988;52.614;13.500;2023-04-28T09:22:55;53946.09;;;-143.77;42.13
13836;BME280;6988;52.614;13.500;2023-04-28T09:27:49;53919.41;;;-143.77;42.08
13836;BME280;6988;52.614;13.500;2023-04-28T09:32:42;53925.56;;;-143.77;42.26
13836;BME280;6988;52.614;13.500;2023-04-28T09:37:34;53892.75;;;-143.77;42.88
13836;BME280;6988;52.614;13.500;2023-04-28T09:42:31;53913.25;;;-143.77;42.14
13836;BME280;6988;52.614;13.500;2023-04-28T09:47:25;53921.47;;;-143.77;41.48
13836;BME280;6988;52.614;13.500;2023-04-28T09:52:17;53925.56;;;-143.77;42.19
13836;BME280;6988;52.614;13.500;2023-04-28T09:57:09;53954.28;;;-143.77;42.14
13836;BME280;6988;52.614;13.500;2023-04-28T10:02:04;53925.56;;;-143.77;41.61
13836;BME280;6988;52.614;13.500;2023-04-28T10:06:58;53923.53;;;-143.77;41.49
13836;BME280;6988;52.614;13.500;2023-04-28T10:11:50;53929.69;;;-143.77;41.99
13836;BME280;6988;52.614;13.500;2023-04-28T10:16:42;53944.03;;;-143.77;41.20
13836;BME280;6988;52.614;13.500;2023-04-28T10:21:43;53900.94;;;-143.77;41.47
13836;BME280;6988;52.614;13.500;2023-04-28T10:27:03;53917.38;;;-143.77;41.07
13836;BME280;6988;52.614;13.500;2023-04-28T10:32:20;53903.00;;;-143.77;41.66
13836;BME280;6988;52.614;13.500;2023-04-28T10:37:13;53896.84;;;-143.77;40.24
13836;BME280;6988;52.614;13.500;2023-04-28T10:42:52;53896.84;;;-143.77;41.06
13836;BME280;6988;52.614;13.500;2023-04-28T10:48:01;53905.06;;;-143.77;42.49
13836;BME280;6988;52.614;13.500;2023-04-28T10:52:55;53859.91;;;-143.77;40.19
13836;BME280;6988;52.614;13.500;2023-04-28T10:58:30;53855.81;;;-143.77;41.06
13836;BME280;6988;52.614;13.500;2023-04-28T11:03:48;53849.66;;;-143.77;41.75
13836;BME280;6988;52.614;13.500;2023-04-28T11:08:40;53878.38;;;-143.77;41.20
13836;BME280;6988;52.614;13.500;2023-04-28T11:13:33;53835.31;;;-143.77;40.89
13836;BME280;6988;52.614;13.500;2023-04-28T11:18:27;53882.50;;;-143.77;40.56
13836;BME280;6988;52.614;13.500;2023-04-28T11:23:19;53868.13;;;-143.77;40.63
13836;BME280;6988;52.614;13.500;2023-04-28T11:28:10;53864.03;;;-143.77;41.09
13836;BME280;6988;52.614;13.500;2023-04-28T11:33:04;53905.06;;;-143.77;40.58
13836;BME280;6988;52.614;13.500;2023-04-28T11:38:03;53919.41;;;-143.77;42.22
13836;BME280;6988;52.614;13.500;2023-04-28T11:42:54;53915.31;;;-143.77;42.45
13836;BME280;6988;52.614;13.500;2023-04-28T11:47:48;53946.09;;;-143.77;42.19
13836;BME280;6988;52.614;13.500;2023-04-28T11:52:48;53939.94;;;-143.77;42.25
13836;BME280;6988;52.614;13.500;2023-04-28T11:57:41;53929.69;;;-143.77;42.60
13836;BME280;6988;52.614;13.500;2023-04-28T12:02:33;53915.31;;;-143.77;42.69
13836;BME280;6988;52.614;13.500;2023-04-28T12:07:26;53966.59;;;-143.77;41.94
13836;BME280;6988;52.614;13.500;2023-04-28T12:12:30;53946.09;;;-143.77;42.28
13836;BME280;6988;52.614;13.500;2023-04-28T12:17:24;53962.50;;;-143.77;41.93
13836;BME280;6988;52.614;13.500;2023-04-28T12:22:16;53950.19;;;-143.77;41.32
13836;BME280;6988;52.614;13.500;2023-04-28T12:27:17;53933.78;;;-143.77;41.61
13836;BME280;6988;52.614;13.500;2023-04-28T12:32:12;53966.59;;;-143.77;43.20
13836;BME280;6988;52.614;13.500;2023-04-28T12:37:05;53983.00;;;-143.77;42.11
13836;BME280;6988;52.614;13.500;2023-04-28T12:42:09;53993.28;;;-143.77;44.21
13836;BME280;6988;52.614;13.500;2023-04-28T12:47:32;54048.66;;;-143.77;44.11
13836;BME280;6988;52.614;13.500;2023-04-28T12:52:24;53987.13;;;-143.77;43.75
13836;BME280;6988;52.614;13.500;2023-04-28T12:57:17;53974.81;;;-143.77;44.02
13836;BME280;6988;52.614;13.500;2023-04-28T13:02:10;53983.00;;;-143.77;43.25
13836;BME280;6988;52.614;13.500;2023-04-28T13:13:35;53966.59;;;-143.77;43.11
13836;BME280;6988;52.614;13.500;2023-04-28T13:18:27;53962.50;;;-143.77;42.90
13836;BME280;6988;52.614;13.500;2023-04-28T13:23:20;53941.97;;;-143.77;42.45
13836;BME280;6988;52.614;13.500;2023-04-28T13:28:12;53933.78;;;-143.77;43.49
13836;BME280;6988;52.614;13.500;2023-04-28T13:33:06;53954.28;;;-143.77;43.47
13836;BME280;6988;52.614;13.500;2023-04-28T13:37:58;53968.66;;;-143.77;44.86
13836;BME280;6988;52.614;13.500;2023-04-28T13:42:53;53999.44;;;-143.77;43.26
13836;BME280;6988;52.614;13.500;2023-04-28T13:47:45;53968.66;;;-143.77;44.47
13836;BME280;6988;52.614;13.500;2023-04-28T13:52:39;54011.75;;;-143.77;44.00
13836;BME280;6988;52.614;13.500;2023-04-28T13:57:31;54028.16;;;-143.77;44.03
13836;BME280;6988;52.614;13.500;2023-04-28T14:02:23;53997.38;;;-143.77;45.61
13836;BME280;6988;52.614;13.500;2023-04-28T14:07:15;54040.47;;;-143.77;44.47
13836;BME280;6988;52.614;13.500;2023-04-28T14:12:09;54015.84;;;-143.77;44.77
13836;BME280;6988;52.614;13.500;2023-04-28T14:17:02;54042.50;;;-143.77;44.16
13836;BME280;6988;52.614;13.500;2023-04-28T14:21:54;54040.47;;;-143.77;45.06
13836;BME280;6988;52.614;13.500;2023-04-28T14:26:46;54058.94;;;-143.77;45.02
13836;BME280;6988;52.614;13.500;2023-04-28T14:31:40;54102.00;;;-143.77;44.37
13836;BME280;6988;52.614;13.500;2023-04-28T14:36:32;54097.91;;;-143.77;45.04
13836;BME280;6988;52.614;13.500;2023-04-28T14:41:25;54106.13;;;-143.77;45.02
13836;BME280;6988;52.614;13.500;2023-04-28T14:46:17;54116.38;;;-143.77;47.39
13836;BME280;6988;52.614;13.500;2023-04-28T14:51:13;54128.69;;;-143.77;48.88
13836;BME280;6988;52.614;13.500;2023-04-28T14:56:06;54108.16;;;-143.77;49.32
13836;BME280;6988;52.614;13.500;2023-04-28T15:00:59;54122.53;;;-143.77;47.95
13836;BME280;6988;52.614;13.500;2023-04-28T15:05:51;54099.97;;;-143.77;48.60
13836;BME280;6988;52.614;13.500;2023-04-28T15:10:45;54106.13;;;-143.77;49.15
13836;BME280;6988;52.614;13.500;2023-04-28T15:15:37;54110.22;;;-143.77;51.11
13836;BME280;6988;52.614;13.500;2023-04-28T15:25:29;54130.75;;;-143.77;54.29
13836;BME280;6988;52.614;13.500;2023-04-28T15:30:22;54093.81;;;-143.77;54.20
13836;BME280;6988;52.614;13.500;2023-04-28T15:35:17;54159.47;;;-143.77;52.13
13836;BME280;6988;52.614;13.500;2023-04-28T15:40:11;54097.91;;;-143.77;53.23
13836;BME280;6988;52.614;13.500;2023-04-28T15:45:05;54110.22;;;-143.77;55.02
13836;BME280;6988;52.614;13.500;2023-04-28T15:50:01;54106.13;;;-143.77;53.81
13836;BME280;6988;52.614;13.500;2023-04-28T15:54:54;54134.84;;;-143.77;54.24
13836;BME280;6988;52.614;13.500;2023-04-28T15:59:46;54089.72;;;-143.77;55.86
13836;BME280;6988;52.614;13.500;2023-04-28T16:04:39;54106.13;;;-143.77;56.94
13836;BME280;6988;52.614;13.500;2023-04-28T16:09:32;54081.50;;;-143.77;57.50
13836;BME280;6988;52.614;13.500;2023-04-28T16:14:24;54130.75;;;-143.77;58.79
13836;BME280;6988;52.614;13.500;2023-04-28T16:19:16;54138.94;;;-143.77;59.38
13836;BME280;6988;52.614;13.500;2023-04-28T16:24:08;54138.94;;;-143.77;58.44
13836;BME280;6988;52.614;13.500;2023-04-28T16:29:01;54169.72;;;-143.77;58.12
13836;BME280;6988;52.614;13.500;2023-04-28T16:33:53;54147.16;;;-143.77;58.70
13836;BME280;6988;52.614;13.500;2023-04-28T16:38:45;54153.31;;;-143.77;58.61
13836;BME280;6988;52.614;13.500;2023-04-28T16:43:37;54147.16;;;-143.77;58.37
13836;BME280;6988;52.614;13.500;2023-04-28T16:48:30;54147.16;;;-143.77;55.76
13836;BME280;6988;52.614;13.500;2023-04-28T16:53:22;54175.88;;;-143.77;56.80
13836;BME280;6988;52.614;13.500;2023-04-28T16:58:14;54167.66;;;-143.77;57.91
13836;BME280;6988;52.614;13.500;2023-04-28T17:03:06;54136.91;;;-143.77;57.64
13836;BME280;6988;52.614;13.500;2023-04-28T17:07:59;54171.78;;;-143.77;57.32
13836;BME280;6988;52.614;13.500;2023-04-28T17:12:52;54194.34;;;-143.77;57.48
13836;BME280;6988;52.614;13.500;2023-04-28T17:17:48;54175.88;;;-143.77;57.99
13836;BME280;6988;52.614;13.500;2023-04-28T17:22:41;54216.91;;;-143.77;58.97
13836;BME280;6988;52.614;13.500;2023-04-28T17:27:35;54229.22;;;-143.77;58.63
13836;BME280;6988;52.614;13.500;2023-04-28T17:32:27;54186.13;;;-143.77;59.45
13836;BME280;6988;52.614;13.500;2023-04-28T17:37:22;54198.44;;;-143.77;59.89
13836;BME280;6988;52.614;13.500;2023-04-28T17:42:14;54184.09;;;-143.77;60.36
13836;BME280;6988;52.614;13.500;2023-04-28T17:47:08;54227.16;;;-143.77;60.39
13836;BME280;6988;52.614;13.500;2023-04-28T17:52:00;54202.56;;;-143.77;60.01
13836;BME280;6988;52.614;13.500;2023-04-28T17:56:51;54233.31;;;-143.77;60.94
13836;BME280;6988;52.614;13.500;2023-04-28T18:01:44;54202.56;;;-143.77;62.15
13836;BME280;6988;52.614;13.500;2023-04-28T18:06:37;54218.97;;;-143.77;62.73
13836;BME280;6988;52.614;13.500;2023-04-28T18:11:29;54208.72;;;-143.77;63.85
13836;BME280;6988;52.614;13.500;2023-04-28T18:16:21;54214.88;;;-143.77;64.36
13836;BME280;6988;52.614;13.500;2023-04-28T18:21:12;54249.75;;;-143.77;66.10
13836;BME280;6988;52.614;13.500;2023-04-28T18:26:06;54255.91;;;-143.77;66.12
13836;BME280;6988;52.614;13.500;2023-04-28T18:30:58;54247.69;;;-143.77;67.26
13836;BME280;6988;52.614;13.500;2023-04-28T18:35:58;54255.91;;;-143.77;68.19
13836;BME280;6988;52.614;13.500;2023-04-28T18:40:49;54221.03;;;-143.77;68.34
13836;BME280;6988;52.614;13.500;2023-04-28T18:45:43;54212.81;;;-143.77;69.36
13836;BME280;6988;52.614;13.500;2023-04-28T18:50:34;54231.28;;;-143.77;69.53
13836;BME280;6988;52.614;13.500;2023-04-28T18:55:27;54282.56;;;-143.77;70.10
13836;BME280;6988;52.614;13.500;2023-04-28T19:00:19;54282.56;;;-143.77;70.45
13836;BME280;6988;52.614;13.500;2023-04-28T19:05:13;54272.31;;;-143.77;71.24
13836;BME280;6988;52.614;13.500;2023-04-28T19:10:07;54284.63;;;-143.77;72.03
13836;BME280;6988;52.614;13.500;2023-04-28T19:14:59;54288.72;;;-143.77;72.42
13836;BME280;6988;52.614;13.500;2023-04-28T19:19:53;54286.69;;;-143.77;73.23
13836;BME280;6988;52.614;13.500;2023-04-28T19:24:47;54245.63;;;-143.77;73.58
13836;BME280;6988;52.614;13.500;2023-04-28T19:29:39;54364.66;;;-143.77;74.03
13836;BME280;6988;52.614;13.500;2023-04-28T19:34:30;54276.41;;;-143.77;74.58
13836;BME280;6988;52.614;13.500;2023-04-28T19:39:22;54303.09;;;-143.77;74.31
13836;BME280;6988;52.614;13.500;2023-04-28T19:44:15;54311.28;;;-143.77;74.45
13836;BME280;6988;52.614;13.500;2023-04-28T19:49:07;54286.69;;;-143.77;74.54
13836;BME280;6988;52.614;13.500;2023-04-28T19:53:59;54305.13;;;-143.77;74.69
13836;BME280;6988;52.614;13.500;2023-04-28T19:58:51;54296.94;;;-143.77;74.51
13836;BME280;6988;52.614;13.500;2023-04-28T20:03:44;54303.09;;;-143.77;74.57
13836;BME280;6988;52.614;13.500;2023-04-28T20:08:36;54323.59;;;-143.77;74.49
13836;BME280;6988;52.614;13.500;2023-04-28T20:13:28;54294.88;;;-143.77;74.08
13836;BME280;6988;52.614;13.500;2023-04-28T20:18:20;54303.09;;;-143.77;74.42
13836;BME280;6988;52.614;13.500;2023-04-28T20:23:14;54311.28;;;-143.77;74.45
13836;BME280;6988;52.614;13.500;2023-04-28T20:28:05;54323.59;;;-143.77;74.14
13836;BME280;6988;52.614;13.500;2023-04-28T20:32:57;54335.91;;;-143.77;74.03
13836;BME280;6988;52.614;13.500;2023-04-28T20:37:49;54298.97;;;-143.77;74.21
13836;BME280;6988;52.614;13.500;2023-04-28T20:42:42;54340.03;;;-143.77;74.13
13836;BME280;6988;52.614;13.500;2023-04-28T20:47:34;54311.28;;;-143.77;74.51
13836;BME280;6988;52.614;13.500;2023-04-28T20:52:26;54329.75;;;-143.77;74.67
13836;BME280;6988;52.614;13.500;2023-04-28T20:57:17;54335.91;;;-143.77;74.89
13836;BME280;6988;52.614;13.500;2023-04-28T21:02:11;54315.41;;;-143.77;75.31
13836;BME280;6988;52.614;13.500;2023-04-28T21:07:02;54307.19;;;-143.77;75.59
13836;BME280;6988;52.614;13.500;2023-04-28T21:11:54;54319.50;;;-143.77;75.59
13836;BME280;6988;52.614;13.500;2023-04-28T21:16:46;54358.50;;;-143.77;75.17
13836;BME280;6988;52.614;13.500;2023-04-28T21:21:39;54335.91;;;-143.77;74.96
13836;BME280;6988;52.614;13.500;2023-04-28T21:26:31;54327.72;;;-143.77;74.91
13836;BME280;6988;52.614;13.500;2023-04-28T21:31:23;54348.22;;;-143.77;75.37
13836;BME280;6988;52.614;13.500;2023-04-28T21:36:15;54331.81;;;-143.77;75.73
13836;BME280;6988;52.614;13.500;2023-04-28T21:41:08;54335.91;;;-143.77;75.30
13836;BME280;6988;52.614;13.500;2023-04-28T22:04:11;54342.06;;;-143.77;75.18
13836;BME280;6988;52.614;13.500;2023-04-28T22:09:03;54290.78;;;-143.77;75.15
13836;BME280;6988;52.614;13.500;2023-04-28T22:13:56;54303.09;;;-143.77;75.48
13836;BME280;6988;52.614;13.500;2023-04-28T22:18:48;54344.13;;;-143.77;75.88
13836;BME280;6988;52.614;13.500;2023-04-28T22:23:41;54290.78;;;-143.77;74.90
13836;BME280;6988;52.614;13.500;2023-04-28T22:28:33;54325.66;;;-143.77;74.93
13836;BME280;6988;52.614;13.500;2023-04-28T22:33:24;54298.97;;;-143.77;74.07
13836;BME280;6988;52.614;13.500;2023-04-28T22:38:16;54344.13;;;-143.77;73.49
13836;BME280;6988;52.614;13.500;2023-04-28T22:43:10;54321.56;;;-143.77;74.29
13836;BME280;6988;52.614;13.500;2023-04-28T22:48:05;54317.44;;;-143.77;74.78
13836;BME280;6988;52.614;13.500;2023-04-28T22:52:57;54333.88;;;-143.77;74.77
13836;BME280;6988;52.614;13.500;2023-04-28T22:57:48;54344.13;;;-143.77;74.98
13836;BME280;6988;52.614;13.500;2023-04-28T23:02:42;54327.72;;;-143.77;75.17
13836;BME280;6988;52.614;13.500;2023-04-28T23:07:34;54364.66;;;-143.77;75.22
13836;BME280;6988;52.614;13.500;2023-04-28T23:12:26;54340.03;;;-143.77;76.04
13836;BME280;6988;52.614;13.500;2023-04-28T23:17:18;54366.69;;;-143.77;76.32
13836;BME280;6988;52.614;13.500;2023-04-28T23:22:12;54342.06;;;-143.77;76.28
13836;BME280;6988;52.614;13.500;2023-04-28T23:27:04;54337.97;;;-143.77;76.37
13836;BME280;6988;52.614;13.500;2023-04-28T23:31:56;54309.25;;;-143.77;76.06
13836;BME280;6988;52.614;13.500;2023-04-28T23:36:48;54372.84;;;-143.77;76.17
13836;BME280;6988;52.614;13.500;2023-04-28T23:41:42;54342.06;;;-143.77;76.34
13836;BME280;6988;52.614;13.500;2023-04-28T23:46:33;54370.81;;;-143.77;76.80
13836;BME280;6988;52.614;13.500;2023-04-28T23:51:26;54366.69;;;-143.77;76.91
13836;BME280;6988;52.614;13.500;2023-04-28T23:56:18;54294.88;;;-143.77;76.76
